createdAt,value
2018-11-03T00:01:27.251Z,100532.80
2018-11-03T00:03:58.892Z,100534.38
2018-11-03T00:06:31.677Z,100532.28
2018-11-03T00:09:00.553Z,100529.69
2018-11-03T00:11:29.539Z,100525.05
2018-11-03T00:13:59.751Z,100518.70
2018-11-03T00:16:30.426Z,100519.89
2018-11-03T00:18:59.891Z,100522.02
2018-11-03T00:21:29.881Z,100529.63
2018-11-03T00:23:59.291Z,100535.82
2018-11-03T00:26:32.584Z,100532.59
2018-11-03T00:29:02.913Z,100526.46
2018-11-03T00:31:32.026Z,100529.25
2018-11-03T00:34:01.587Z,100526.56
2018-11-03T00:36:30.554Z,100514.03
2018-11-03T00:39:07.025Z,100515.03
2018-11-03T00:41:36.829Z,100523.14
2018-11-03T00:44:08.680Z,100521.40
2018-11-03T00:46:38.325Z,100516.53
2018-11-03T00:49:07.912Z,100520.10
2018-11-03T00:51:38.990Z,100526.86
2018-11-03T00:54:07.667Z,100531.09
2018-11-03T00:56:36.769Z,100529.86
2018-11-03T00:59:06.949Z,100536.53
2018-11-03T01:01:36.910Z,100548.00
2018-11-03T01:04:06.078Z,100541.55
2018-11-03T01:06:34.830Z,100539.09
2018-11-03T01:09:04.118Z,100547.68
2018-11-03T01:11:32.679Z,100541.31
2018-11-03T01:14:01.289Z,100542.58
2018-11-03T01:16:29.864Z,100543.04
2018-11-03T01:18:58.465Z,100548.83
2018-11-03T01:21:27.069Z,100547.23
2018-11-03T01:23:55.665Z,100551.88
2018-11-03T01:26:24.521Z,100558.93
2018-11-03T01:28:53.545Z,100550.95
2018-11-03T01:31:22.117Z,100542.87
2018-11-03T01:33:50.700Z,100548.03
2018-11-03T01:36:19.254Z,100545.63
2018-11-03T01:38:47.852Z,100542.29
2018-11-03T01:41:16.406Z,100544.08
2018-11-03T01:43:45.001Z,100538.61
2018-11-03T01:46:13.568Z,100538.37
2018-11-03T01:48:42.219Z,100549.03
2018-11-03T01:51:10.860Z,100542.81
2018-11-03T01:53:39.519Z,100544.68
2018-11-03T01:56:08.168Z,100534.99
2018-11-03T01:58:37.867Z,100545.03
2018-11-03T02:01:06.440Z,100542.83
2018-11-03T02:03:35.050Z,100544.33
2018-11-03T02:06:03.651Z,100543.61
2018-11-03T02:08:32.279Z,100541.69
2018-11-03T02:11:00.982Z,100537.58
2018-11-03T02:13:29.552Z,100533.52
2018-11-03T02:15:58.469Z,100533.81
2018-11-03T02:18:27.036Z,100535.98
2018-11-03T02:20:55.678Z,100531.95
2018-11-03T02:23:24.240Z,100521.23
2018-11-03T02:25:52.836Z,100518.84
2018-11-03T02:28:21.453Z,100524.14
2018-11-03T02:30:50.030Z,100521.20
2018-11-03T02:33:18.666Z,100519.25
2018-11-03T02:35:47.301Z,100518.19
2018-11-03T02:38:15.837Z,100523.33
2018-11-03T02:40:44.536Z,100522.38
2018-11-03T02:43:13.098Z,100515.28
2018-11-03T02:45:41.693Z,100518.25
2018-11-03T02:48:10.633Z,100522.75
2018-11-03T02:50:39.213Z,100504.87
2018-11-03T02:53:07.779Z,100509.48
2018-11-03T02:55:36.383Z,100506.77
2018-11-03T02:58:04.990Z,100508.28
2018-11-03T03:00:33.591Z,100504.73
2018-11-03T03:03:02.504Z,100506.00
2018-11-03T03:05:31.134Z,100511.59
2018-11-03T03:07:59.732Z,100512.00
2018-11-03T03:10:28.328Z,100502.16
2018-11-03T03:12:56.900Z,100499.61
2018-11-03T03:15:25.490Z,100504.17
2018-11-03T03:17:54.037Z,100490.74
2018-11-03T03:20:22.625Z,100495.31
2018-11-03T03:22:51.218Z,100497.73
2018-11-03T03:25:19.833Z,100496.72
2018-11-03T03:27:48.431Z,100496.89
2018-11-03T03:30:17.026Z,100499.54
2018-11-03T03:32:45.600Z,100499.09
2018-11-03T03:35:14.230Z,100502.00
2018-11-03T03:37:42.786Z,100503.39
2018-11-03T03:40:11.616Z,100509.27
2018-11-03T03:42:40.377Z,100517.80
2018-11-03T03:45:10.036Z,100509.80
2018-11-03T03:47:38.785Z,100501.55
2018-11-03T03:50:08.612Z,100494.77
2018-11-03T03:52:37.156Z,100503.31
2018-11-03T03:55:06.121Z,100503.05
2018-11-03T03:57:34.735Z,100502.97
2018-11-03T04:00:03.369Z,100510.42
2018-11-03T04:02:31.975Z,100509.42
2018-11-03T04:05:00.555Z,100502.40
2018-11-03T04:07:29.144Z,100505.06
2018-11-03T04:09:57.746Z,100510.50
2018-11-03T04:12:26.347Z,100511.75
2018-11-03T04:14:54.932Z,100499.07
2018-11-03T04:17:23.538Z,100508.48
2018-11-03T04:19:52.098Z,100516.17
2018-11-03T04:22:20.680Z,100516.89
2018-11-03T04:24:49.237Z,100509.09
2018-11-03T04:27:17.839Z,100514.71
2018-11-03T04:29:46.404Z,100514.38
2018-11-03T04:32:15.004Z,100511.83
2018-11-03T04:34:43.585Z,100508.09
2018-11-03T04:37:12.265Z,100507.77
2018-11-03T04:39:40.892Z,100508.56
2018-11-03T04:42:09.500Z,100515.91
2018-11-03T04:44:38.045Z,100492.69
2018-11-03T04:47:06.660Z,100513.94
2018-11-03T04:49:35.213Z,100513.86
2018-11-03T04:52:03.802Z,100513.06
2018-11-03T04:54:32.356Z,100521.72
2018-11-03T04:57:00.936Z,100530.62
2018-11-03T04:59:29.490Z,100519.68
2018-11-03T05:01:58.140Z,100508.16
2018-11-03T05:04:26.713Z,100517.72
2018-11-03T05:06:55.346Z,100519.84
2018-11-03T05:09:23.898Z,100509.64
2018-11-03T05:11:52.488Z,100522.11
2018-11-03T05:14:21.068Z,100517.09
2018-11-03T05:16:49.656Z,100518.36
2018-11-03T05:19:18.281Z,100520.67
2018-11-03T05:21:46.878Z,100519.46
2018-11-03T05:24:15.449Z,100512.41
2018-11-03T05:26:44.041Z,100508.37
2018-11-03T05:29:12.624Z,100512.64
2018-11-03T05:31:41.234Z,100512.10
2018-11-03T05:34:10.110Z,100513.43
2018-11-03T05:36:38.705Z,100517.72
2018-11-03T05:39:09.617Z,100514.76
2018-11-03T05:41:38.168Z,100516.34
2018-11-03T05:44:06.792Z,100513.20
2018-11-03T05:46:35.414Z,100514.95
2018-11-03T05:49:03.958Z,100519.28
2018-11-03T05:51:32.541Z,100514.05
2018-11-03T05:54:01.147Z,100512.46
2018-11-03T05:56:29.937Z,100512.05
2018-11-03T05:58:58.560Z,100514.95
2018-11-03T06:01:27.208Z,100509.80
2018-11-03T06:03:55.801Z,100510.91
2018-11-03T06:06:24.380Z,100516.45
2018-11-03T06:08:53.036Z,100527.20
2018-11-03T06:11:21.537Z,100523.28
2018-11-03T06:13:50.439Z,100525.92
2018-11-03T06:16:19.013Z,100527.12
2018-11-03T06:18:47.693Z,100522.04
2018-11-03T06:21:16.248Z,100536.34
2018-11-03T06:23:45.184Z,100537.70
2018-11-03T06:26:13.752Z,100535.84
2018-11-03T06:28:42.350Z,100533.45
2018-11-03T06:31:10.901Z,100530.72
2018-11-03T06:33:39.501Z,100538.09
2018-11-03T06:36:08.093Z,100533.19
2018-11-03T06:38:36.694Z,100533.57
2018-11-03T06:41:05.871Z,100522.59
2018-11-03T06:43:34.481Z,100529.55
2018-11-03T06:46:03.032Z,100525.66
2018-11-03T06:48:31.620Z,100518.70
2018-11-03T06:51:00.220Z,100525.27
2018-11-03T06:53:29.735Z,100529.78
2018-11-03T06:55:58.318Z,100526.83
2018-11-03T06:58:26.916Z,100533.09
2018-11-03T07:00:55.466Z,100538.37
2018-11-03T07:03:24.055Z,100536.97
2018-11-03T07:05:52.609Z,100544.38
2018-11-03T07:08:21.215Z,100542.66
2018-11-03T07:10:49.802Z,100534.80
2018-11-03T07:13:18.464Z,100537.06
2018-11-03T07:15:46.976Z,100535.84
2018-11-03T07:18:15.582Z,100539.73
2018-11-03T07:20:44.302Z,100543.73
2018-11-03T07:23:12.929Z,100539.53
2018-11-03T07:25:42.238Z,100537.44
2018-11-03T07:28:12.305Z,100539.62
2018-11-03T07:30:41.484Z,100541.37
2018-11-03T07:33:15.297Z,100544.13
2018-11-03T07:35:43.927Z,100545.70
2018-11-03T07:38:12.589Z,100545.47
2018-11-03T07:40:41.249Z,100545.42
2018-11-03T07:43:09.876Z,100543.77
2018-11-03T07:45:38.485Z,100538.19
2018-11-03T07:48:13.979Z,100540.21
2018-11-03T07:50:42.889Z,100545.14
2018-11-03T07:53:11.496Z,100544.00
2018-11-03T07:55:44.387Z,100549.86
2018-11-03T07:58:13.019Z,100549.61
2018-11-03T08:00:41.781Z,100544.23
2018-11-03T08:03:10.262Z,100545.94
2018-11-03T08:05:38.939Z,100536.29
2018-11-03T08:08:07.560Z,100536.92
2018-11-03T08:10:36.222Z,100539.70
2018-11-03T08:13:11.680Z,100538.17
2018-11-03T08:15:41.366Z,100542.55
2018-11-03T08:18:09.935Z,100532.96
2018-11-03T08:20:38.557Z,100538.64
2018-11-03T08:23:07.200Z,100537.27
2018-11-03T08:25:35.856Z,100543.78
2018-11-03T08:28:04.433Z,100538.16
2018-11-03T08:30:33.301Z,100539.59
2018-11-03T08:33:01.937Z,100540.53
2018-11-03T08:35:31.692Z,100534.62
2018-11-03T08:38:00.585Z,100529.38
2018-11-03T08:40:29.428Z,100539.39
2018-11-03T08:42:57.966Z,100537.44
2018-11-03T08:45:26.529Z,100540.44
2018-11-03T08:47:55.100Z,100545.91
2018-11-03T08:50:23.933Z,100541.14
2018-11-03T08:52:52.638Z,100538.54
2018-11-03T08:55:21.290Z,100539.22
2018-11-03T08:57:49.846Z,100535.48
2018-11-03T09:00:18.499Z,100534.79
2018-11-03T09:02:47.245Z,100529.36
2018-11-03T09:05:15.836Z,100524.84
2018-11-03T09:07:44.384Z,100513.23
2018-11-03T09:10:14.327Z,100519.06
2018-11-03T09:12:43.081Z,100521.87
2018-11-03T09:15:13.850Z,100521.26
2018-11-03T09:17:43.229Z,100520.64
2018-11-03T09:20:12.821Z,100514.30
2018-11-03T09:22:41.431Z,100513.68
2018-11-03T09:25:11.729Z,100509.06
2018-11-03T09:27:41.285Z,100509.83
2018-11-03T09:30:13.390Z,100508.18
2018-11-03T09:32:42.865Z,100511.17
2018-11-03T09:35:12.815Z,100513.02
2018-11-03T09:37:41.436Z,100501.22
2018-11-03T09:40:12.749Z,100508.03
2018-11-03T09:42:43.139Z,100495.46
2018-11-03T09:45:12.438Z,100490.61
2018-11-03T09:47:42.841Z,100492.25
2018-11-03T09:50:14.049Z,100492.48
2018-11-03T09:52:43.091Z,100489.73
2018-11-03T09:55:14.331Z,100484.18
2018-11-03T09:57:43.385Z,100480.06
2018-11-03T10:00:14.881Z,100460.02
2018-11-03T10:02:43.418Z,100471.46
2018-11-03T10:05:13.133Z,100463.45
2018-11-03T10:07:41.930Z,100451.59
2018-11-03T10:10:14.413Z,100461.58
2018-11-03T10:12:43.236Z,100459.19
2018-11-03T10:15:12.877Z,100453.13
2018-11-03T10:17:41.617Z,100458.94
2018-11-03T10:20:10.632Z,100460.66
2018-11-03T10:22:39.301Z,100454.44
2018-11-03T10:25:17.248Z,100446.53
2018-11-03T10:27:46.286Z,100452.30
2018-11-03T10:30:15.846Z,100448.72
2018-11-03T10:32:44.731Z,100440.64
2018-11-03T10:35:13.907Z,100438.66
2018-11-03T10:37:42.715Z,100442.66
2018-11-03T10:40:14.591Z,100431.07
2018-11-03T10:42:43.779Z,100436.58
2018-11-03T10:45:13.598Z,100419.66
2018-11-03T10:47:42.752Z,100422.30
2018-11-03T10:50:13.271Z,100422.50
2018-11-03T10:52:42.652Z,100423.06
2018-11-03T10:55:12.707Z,100412.83
2018-11-03T10:57:41.524Z,100404.33
2018-11-03T11:00:18.589Z,100399.27
2018-11-03T11:02:53.121Z,100394.81
2018-11-03T11:06:29.735Z,100393.91
2018-11-03T11:09:03.857Z,100391.22
2018-11-03T11:11:37.780Z,100380.47
2018-11-03T11:14:06.598Z,100379.56
2018-11-03T11:16:36.782Z,100380.09
2018-11-03T11:19:05.673Z,100369.23
2018-11-03T11:21:34.529Z,100365.64
2018-11-03T11:24:03.105Z,100353.60
2018-11-03T11:26:32.585Z,100360.25
2018-11-03T11:29:01.241Z,100354.66
2018-11-03T11:31:29.788Z,100354.33
2018-11-03T11:33:58.584Z,100357.56
2018-11-03T11:36:27.652Z,100365.39
2018-11-03T11:38:56.228Z,100352.77
2018-11-03T11:41:24.796Z,100348.31
2018-11-03T11:43:53.363Z,100350.83
2018-11-03T11:46:21.937Z,100353.47
2018-11-03T11:48:50.520Z,100346.19
2018-11-03T11:51:19.073Z,100345.64
2018-11-03T11:53:47.946Z,100343.98
2018-11-03T11:56:16.476Z,100344.62
2018-11-03T11:58:45.970Z,100335.89
2018-11-03T12:01:14.538Z,100330.45
2018-11-03T12:03:43.259Z,100325.30
2018-11-03T12:06:11.781Z,100310.38
2018-11-03T12:08:40.649Z,100309.94
2018-11-03T12:11:09.202Z,100300.19
2018-11-03T12:13:38.502Z,100302.27
2018-11-03T12:16:08.209Z,100293.61
2018-11-03T12:18:36.826Z,100285.86
2018-11-03T12:21:05.481Z,100290.73
2018-11-03T12:23:34.060Z,100285.71
2018-11-03T12:26:02.605Z,100272.86
2018-11-03T12:28:31.181Z,100270.47
2018-11-03T12:30:59.723Z,100271.98
2018-11-03T12:33:28.315Z,100268.23
2018-11-03T12:35:56.857Z,100268.73
2018-11-03T12:38:25.436Z,100259.91
2018-11-03T12:40:54.163Z,100260.52
2018-11-03T12:43:23.057Z,100258.24
2018-11-03T12:45:51.956Z,100254.25
2018-11-03T12:48:20.808Z,100250.42
2018-11-03T12:50:49.402Z,100255.16
2018-11-03T12:53:18.000Z,100251.33
2018-11-03T12:55:46.567Z,100249.19
2018-11-03T12:58:15.152Z,100240.51
2018-11-03T13:00:43.841Z,100233.22
2018-11-03T13:03:12.577Z,100236.59
2018-11-03T13:05:41.158Z,100239.69
2018-11-03T13:08:09.740Z,100237.10
2018-11-03T13:10:38.339Z,100235.39
2018-11-03T13:13:06.921Z,100231.41
2018-11-03T13:15:35.486Z,100227.17
2018-11-03T13:18:04.056Z,100217.20
2018-11-03T13:20:32.887Z,100213.00
2018-11-03T13:23:01.422Z,100217.62
2018-11-03T13:25:29.982Z,100211.63
2018-11-03T13:27:58.796Z,100212.70
2018-11-03T13:30:27.367Z,100205.05
2018-11-03T13:32:55.897Z,100204.02
2018-11-03T13:35:24.494Z,100195.11
2018-11-03T13:37:53.040Z,100188.88
2018-11-03T13:40:21.686Z,100194.16
2018-11-03T13:42:50.205Z,100194.91
2018-11-03T13:45:18.778Z,100188.30
2018-11-03T13:47:47.379Z,100191.43
2018-11-03T13:50:17.106Z,100184.45
2018-11-03T13:52:46.764Z,100183.01
2018-11-03T13:55:15.384Z,100177.26
2018-11-03T13:57:44.908Z,100171.33
2018-11-03T14:00:15.641Z,100173.30
2018-11-03T14:02:45.100Z,100171.89
2018-11-03T14:05:14.238Z,100169.17
2018-11-03T14:07:42.957Z,100166.35
2018-11-03T14:10:14.783Z,100165.70
2018-11-03T14:12:44.147Z,100169.91
2018-11-03T14:15:14.077Z,100167.85
2018-11-03T14:17:43.529Z,100156.98
2018-11-03T14:20:14.153Z,100159.67
2018-11-03T14:22:43.500Z,100155.21
2018-11-03T14:25:13.648Z,100157.97
2018-11-03T14:27:43.507Z,100150.59
2018-11-03T14:30:13.001Z,100155.27
2018-11-03T14:32:43.201Z,100155.69
2018-11-03T14:35:12.796Z,100151.74
2018-11-03T14:37:42.593Z,100152.30
2018-11-03T14:40:13.373Z,100144.28
2018-11-03T14:42:42.808Z,100140.42
2018-11-03T14:45:12.267Z,100147.58
2018-11-03T14:47:40.996Z,100141.83
2018-11-03T14:50:10.014Z,100149.65
2018-11-03T14:52:39.801Z,100140.78
2018-11-03T14:55:09.764Z,100138.33
2018-11-03T14:57:38.521Z,100135.15
2018-11-03T15:00:15.522Z,100138.73
2018-11-03T15:02:44.061Z,100139.38
2018-11-03T15:05:13.109Z,100134.47
2018-11-03T15:07:41.655Z,100136.42
2018-11-03T15:10:11.288Z,100130.31
2018-11-03T15:12:40.622Z,100126.36
2018-11-03T15:15:11.521Z,100132.81
2018-11-03T15:17:40.081Z,100127.05
2018-11-03T15:20:09.720Z,100127.20
2018-11-03T15:22:38.429Z,100119.70
2018-11-03T15:25:07.612Z,100118.79
2018-11-03T15:27:36.213Z,100112.20
2018-11-03T15:30:05.409Z,100116.74
2018-11-03T15:32:34.648Z,100117.12
2018-11-03T15:35:03.480Z,100117.49
2018-11-03T15:37:32.050Z,100110.52
2018-11-03T15:40:00.590Z,100113.19
2018-11-03T15:42:29.167Z,100119.34
2018-11-03T15:44:57.740Z,100113.41
2018-11-03T15:47:26.328Z,100121.02
2018-11-03T15:49:54.864Z,100118.67
2018-11-03T15:52:23.666Z,100117.14
2018-11-03T15:54:52.214Z,100121.39
2018-11-03T15:57:20.842Z,100118.86
2018-11-03T15:59:50.268Z,100123.64
2018-11-03T16:02:18.828Z,100114.27
2018-11-03T16:04:47.920Z,100118.20
2018-11-03T16:07:16.855Z,100118.36
2018-11-03T16:09:45.415Z,100110.08
2018-11-03T16:12:14.515Z,100115.34
2018-11-03T16:14:43.292Z,100113.73
2018-11-03T16:17:11.920Z,100113.37
2018-11-03T16:19:42.785Z,100112.33
2018-11-03T16:22:11.361Z,100108.11
2018-11-03T16:24:39.892Z,100112.52
2018-11-03T16:27:08.545Z,100115.71
2018-11-03T16:29:37.201Z,100118.32
2018-11-03T16:32:07.113Z,100113.62
2018-11-03T16:34:39.518Z,100110.20
2018-11-03T16:37:12.907Z,100103.88
2018-11-03T16:39:49.275Z,100108.01
2018-11-03T16:42:23.540Z,100111.20
2018-11-03T16:44:52.073Z,100105.84
2018-11-03T16:47:26.151Z,100105.37
2018-11-03T16:50:02.235Z,100106.06
2018-11-03T16:52:33.716Z,100109.77
2018-11-03T16:55:03.846Z,100105.20
2018-11-03T16:57:37.233Z,100111.93
2018-11-03T17:00:19.552Z,100110.48
2018-11-03T17:02:53.109Z,100108.30
2018-11-03T17:05:30.827Z,100098.94
2018-11-03T17:08:02.707Z,100098.06
2018-11-03T17:10:42.637Z,100098.20
2018-11-03T17:13:13.968Z,100099.39
2018-11-03T17:15:46.457Z,100090.64
2018-11-03T17:18:23.670Z,100095.38
2018-11-03T17:20:53.506Z,100093.09
2018-11-03T17:23:22.267Z,100087.39
2018-11-03T17:25:55.381Z,100089.52
2018-11-03T17:28:29.284Z,100081.16
2018-11-03T17:31:00.470Z,100082.62
2018-11-03T17:33:36.734Z,100070.03
2018-11-03T17:36:13.263Z,100074.51
2018-11-03T17:38:47.976Z,100071.75
2018-11-03T17:41:30.222Z,100077.02
2018-11-03T17:44:10.040Z,100074.17
2018-11-03T17:46:40.669Z,100068.54
2018-11-03T17:49:09.423Z,100071.39
2018-11-03T17:51:38.118Z,100072.03
2018-11-03T17:54:07.483Z,100073.20
2018-11-03T17:56:36.741Z,100067.62
2018-11-03T17:59:06.411Z,100070.47
2018-11-03T18:01:35.167Z,100070.34
2018-11-03T18:04:03.690Z,100068.28
2018-11-03T18:06:32.334Z,100067.02
2018-11-03T18:09:00.913Z,100060.13
2018-11-03T18:11:29.686Z,100064.66
2018-11-03T18:13:58.259Z,100060.95
2018-11-03T18:16:26.797Z,100061.65
2018-11-03T18:18:55.449Z,100058.98
2018-11-03T18:21:24.021Z,100050.75
2018-11-03T18:23:54.296Z,100062.91
2018-11-03T18:26:23.147Z,100046.61
2018-11-03T18:28:53.608Z,100063.50
2018-11-03T18:31:23.217Z,100061.22
2018-11-03T18:33:52.613Z,100061.76
2018-11-03T18:36:21.162Z,100053.67
2018-11-03T18:38:50.083Z,100059.38
2018-11-03T18:41:26.581Z,100058.66
2018-11-03T18:44:03.877Z,100055.00
2018-11-03T18:46:35.045Z,100059.03
2018-11-03T18:49:04.160Z,100051.11
2018-11-03T18:51:35.161Z,100042.34
2018-11-03T18:54:06.366Z,100038.73
2018-11-03T18:56:35.203Z,100040.25
2018-11-03T18:59:03.780Z,100042.87
2018-11-03T19:01:40.904Z,100040.21
2018-11-03T19:04:11.007Z,100048.77
2018-11-03T19:06:41.081Z,100043.26
2018-11-03T19:09:10.551Z,100036.08
2018-11-03T19:11:41.793Z,100037.87
2018-11-03T19:14:11.197Z,100042.64
2018-11-03T19:19:09.364Z,100047.93
2018-11-03T19:21:38.380Z,100044.03
2018-11-03T19:24:07.112Z,100044.41
2018-11-03T19:26:39.263Z,100040.43
2018-11-03T19:29:08.182Z,100035.88
2018-11-03T19:31:36.752Z,100034.80
2018-11-03T19:34:05.500Z,100029.44
2018-11-03T19:36:34.083Z,100031.94
2018-11-03T19:39:02.685Z,100026.20
2018-11-03T19:41:31.312Z,100022.98
2018-11-03T19:43:59.911Z,100026.97
2018-11-03T19:46:28.490Z,100027.96
2018-11-03T19:48:57.384Z,100023.72
2018-11-03T19:51:26.209Z,100021.65
2018-11-03T19:53:54.896Z,100023.83
2018-11-03T19:56:24.463Z,100024.96
2018-11-03T19:58:54.866Z,100022.36
2018-11-03T20:01:27.857Z,100024.98
2018-11-03T20:04:04.237Z,100012.55
2018-11-03T20:06:42.746Z,100005.49
2018-11-03T20:09:15.510Z,100004.69
2018-11-03T20:11:44.234Z,100006.41
2018-11-03T20:14:14.550Z,100004.49
2018-11-03T20:16:43.238Z,100001.33
2018-11-03T20:19:13.566Z,100001.45
2018-11-03T20:21:44.029Z,100000.78
2018-11-03T20:24:12.807Z,99999.11
2018-11-03T20:26:41.364Z,99997.00
2018-11-03T20:29:10.272Z,99990.73
2018-11-03T20:31:47.281Z,99995.64
2018-11-03T20:34:16.033Z,99986.74
2018-11-03T20:36:47.829Z,99979.47
2018-11-03T20:39:17.650Z,99985.19
2018-11-03T20:41:46.432Z,99977.50
2018-11-03T20:44:16.103Z,99978.79
2018-11-03T20:46:46.488Z,99981.69
2018-11-03T20:49:16.301Z,99980.84
2018-11-03T20:51:44.909Z,99977.87
2018-11-03T20:54:13.451Z,99975.28
2018-11-03T20:56:42.013Z,99976.64
2018-11-03T20:59:10.614Z,99978.98
2018-11-03T21:01:39.202Z,99972.24
2018-11-03T21:04:09.790Z,99973.45
2018-11-03T21:06:38.736Z,99971.33
2018-11-03T21:09:11.604Z,99968.78
2018-11-03T21:11:40.185Z,99968.92
2018-11-03T21:14:10.688Z,99958.84
2018-11-03T21:16:39.364Z,99964.59
2018-11-03T21:19:08.057Z,99955.64
2018-11-03T21:21:37.028Z,99947.39
2018-11-03T21:24:05.944Z,99949.73
2018-11-03T21:26:35.148Z,99943.25
2018-11-03T21:29:04.210Z,99937.28
2018-11-03T21:31:38.788Z,99938.44
2018-11-03T21:34:11.681Z,99929.61
2018-11-03T21:36:40.304Z,99924.31
2018-11-03T21:39:16.554Z,99926.95
2018-11-03T21:41:50.487Z,99921.20
2018-11-03T21:44:24.586Z,99919.98
2018-11-03T21:46:58.722Z,99914.00
2018-11-03T21:49:31.828Z,99915.45
2018-11-03T21:52:00.521Z,99911.42
2018-11-03T21:54:29.114Z,99904.66
2018-11-03T21:56:58.038Z,99897.08
2018-11-03T21:59:26.552Z,99893.09
2018-11-03T22:01:55.117Z,99888.45
2018-11-03T22:04:23.651Z,99891.20
2018-11-03T22:07:00.543Z,99891.75
2018-11-03T22:09:34.733Z,99889.89
2018-11-03T22:12:07.574Z,99884.08
2018-11-03T22:14:43.186Z,99887.73
2018-11-03T22:17:16.124Z,99878.84
2018-11-03T22:19:49.380Z,99876.30
2018-11-03T22:22:23.913Z,99875.39
2018-11-03T22:25:06.375Z,99872.67
2018-11-03T22:27:48.073Z,99871.31
2018-11-03T22:30:21.730Z,99875.81
2018-11-03T22:32:56.261Z,99873.94
2018-11-03T22:35:34.858Z,99871.50
2018-11-03T22:38:12.064Z,99874.87
2018-11-03T22:40:49.586Z,99871.84
2018-11-03T22:43:23.304Z,99862.88
2018-11-03T22:45:57.630Z,99866.31
2018-11-03T22:48:29.928Z,99854.40
2018-11-03T22:51:08.595Z,99852.91
2018-11-03T22:53:44.649Z,99844.03
2018-11-03T22:56:22.162Z,99837.69
2018-11-03T22:58:55.994Z,99837.28
2018-11-03T23:01:29.771Z,99833.77
2018-11-03T23:04:02.548Z,99828.73
2018-11-03T23:06:38.338Z,99828.41
2018-11-03T23:09:16.073Z,99821.35
2018-11-03T23:11:51.692Z,99816.06
2018-11-03T23:14:26.876Z,99811.95
2018-11-03T23:17:02.944Z,99811.94
2018-11-03T23:19:36.870Z,99806.38
2018-11-03T23:22:15.604Z,99809.46
2018-11-03T23:24:50.129Z,99810.95
2018-11-03T23:27:26.355Z,99798.22
2018-11-03T23:29:59.140Z,99799.38
2018-11-03T23:32:46.214Z,99796.17
2018-11-03T23:35:21.446Z,99798.34
2018-11-03T23:37:56.579Z,99792.41
2018-11-03T23:40:31.001Z,99797.23
2018-11-03T23:43:04.679Z,99790.45
2018-11-03T23:45:40.163Z,99791.66
2018-11-03T23:48:19.401Z,99785.13
2018-11-03T23:50:53.238Z,99785.94
2018-11-03T23:53:27.516Z,99777.28
2018-11-03T23:56:01.011Z,99778.69
2018-11-03T23:58:36.642Z,99773.78
